ADDS METAR Data INFO
IDs: Format: Raw Decoded Include TAF

Data at: 1132 UTC 29 May 2017

KSJT 291051Z 34006KT 10SM FEW065 BKN080 19/15 A3006 RMK AO2 SLP161 T01940150 $
KSJT 290951Z 01006KT 10SM OVC060 21/16 A3005 RMK AO2 SLP153 T02060156 $
KSJT 290851Z 01006KT 10SM BKN060 BKN075 OVC090 21/15 A3005 RMK AO2 SLP154 T02060150 56010 $
KSJT 290751Z 04003KT 10SM SCT060 OVC080 20/15 A3006 RMK AO2 SLP156 T02000150 $
KSJT 290651Z 06005KT 10SM FEW080 20/14 A3006 RMK AO2 SLP159 T02000144 $
KSJT 290551Z 04005KT 10SM CLR 21/14 A3008 RMK AO2 SLP164 T02060144 10261 20206 402940206 51017 $
KSJT 290451Z 05007KT 10SM CLR 22/14 A3006 RMK AO2 SLP158 T02170144 $
KSJT 290351Z 04009KT 10SM OVC043 23/14 A3005 RMK AO2 SLP154 T02280139 $
KSJT 290251Z 05007KT 10SM OVC042 23/14 A3003 RMK AO2 LTG DSNT S SLP147 T02330139 53020 $
KSJT 290151Z 02013KT 10SM FEW037 23/14 A2999 RMK AO2 LTG DSNT SE AND S TSB25E40 SLP135 T02330144 $
KSJT 290142Z 03010KT 10SM SCT037 24/14 A2999 RMK AO2 LTG DSNT SE AND S TSB25E40 T02390144 $
KSJT 290131Z 05010KT 10SM TS BKN037 BKN044 24/14 A2999 RMK AO2 LTG DSNT E-S TSB25 T02390144 $
KSJT 290051Z 02014KT 10SM VCTS BKN040 24/16 A2998 RMK AO2 LTG DSNT ALQDS TSB21E46 SLP133 T02440156 $
KSJT 290027Z 05014KT 10SM TS BKN040 26/16 A2998 RMK AO2 TSB21 T02560156 $
KSJT 282351Z 05017G23KT 10SM OVC043 26/16 A2996 RMK AO2 LTG DSNT NE PRESFR SLP124 T02610156 10294 20261 58014 $
KSJT 282251Z 04012G19KT 10SM BKN044 27/16 A2999 RMK AO2 LTG DSNT NW SLP133 T02720156 $
KSJT 282151Z 02016G22KT 10SM CLR 28/16 A2999 RMK AO2 PK WND 01026/2130 SLP131 T02830156 $
KSJT 282051Z 02016KT 10SM CLR 27/15 A3001 RMK AO2 SLP138 T02670150 58004 $
KSJT 281951Z 04016G22KT 10SM CLR 29/16 A3001 RMK AO2 PK WND 02026/1930 SLP138 T02940161 $
KSJT 281851Z 03014G22KT 10SM CLR 29/16 A3002 RMK AO2 SLP140 T02890161 $
KSJT 281751Z 04017KT 10SM FEW037 28/16 A3002 RMK AO2 SLP139 T02780161 10283 20222 50003 $
KSJT 281651Z 01015G27KT 10SM SCT034 27/16 A3002 RMK AO2 PK WND 03027/1649 SLP140 T02720156 $
KSJT 281551Z 04013G20KT 10SM CLR 26/16 A3001 RMK AO2 SLP137 T02610156 $
KSJT 281451Z 03016G20KT 10SM FEW029 24/15 A3001 RMK AO2 SLP135 T02440150 51009 $
KSJT 281351Z 04016G23KT 10SM SCT027 23/15 A3000 RMK AO2 SLP133 T02330150 $
KSJT 281348Z 04014G23KT 10SM SCT027 23/15 A3000 RMK AO2 $
KSJT 281335Z 05014G23KT 10SM BKN027 23/15 A3000 RMK AO2 T02280150 $
KSJT 281251Z 03016G20KT 10SM FEW027 22/15 A2998 RMK AO2 SLP125 T02220150 $
KSJT 281151Z 03018G23KT 10SM CLR 22/14 A2995 RMK AO2 PK WND 02027/1111 SLP113 T02220144 10278 20211 53037 $
KSJT 281051Z 03019G30KT 10SM FEW050 24/16 A2992 RMK AO2 PK WND 03030/1044 SLP099 T02390161 $
KSJT 280951Z 19005KT 6SM HZ CLR 22/19 A2984 RMK AO2 SLP076 T02220194 $
KSJT 280851Z 21005KT 7SM CLR 24/20 A2983 RMK AO2 SLP073 T02390200 56007 $
KSJT 280751Z 21007KT 7SM CLR 25/19 A2984 RMK AO2 SLP074 T02500194
KSJT 280651Z 22005KT 8SM CLR 25/19 A2984 RMK AO2 SLP076 T02500194
KSJT 280551Z 25008KT 10SM CLR 28/19 A2986 RMK AO2 SLP080 T02780194 10389 20278 404060228 51013
KSJT 280451Z 20009KT 10SM CLR 29/19 A2985 RMK AO2 SLP080 T02940194
KSJT 280351Z 18011G20KT 10SM CLR 31/20 A2984 RMK AO2 SLP074 T03060200
KSJT 280251Z 19009G17KT 10SM CLR 32/20 A2982 RMK AO2 SLP068 T03170200 53018
KSJT 280151Z 17010KT 10SM CLR 33/19 A2980 RMK AO2 SLP061 T03280189
KSJT 280051Z 19008KT 10SM CLR 36/18 A2978 RMK AO2 SLP053 T03560183
KSJT 272351Z 25008KT 10SM CLR 39/06 A2976 RMK AO2 SLP048 T03890056 10406 20356 56013


Page loaded:  11:32 UTC  |   04:32 AM Pacific  |   05:32 AM Mountain  |   06:32 AM Central  |   07:32 AM Eastern

 

ADVISORIES

FORECASTS

FORECASTS

OBSERVATIONS

USER TOOLS

ABOUT US